createdAt,value
2017-07-11T00:00:24.678Z,4.00
2017-07-11T00:02:53.704Z,3.83
2017-07-11T00:05:21.972Z,4.37
2017-07-11T00:07:50.280Z,3.42
2017-07-11T00:10:19.316Z,3.75
2017-07-11T00:12:47.580Z,3.60
2017-07-11T00:15:15.884Z,3.70
2017-07-11T00:17:44.917Z,4.05
2017-07-11T00:20:13.181Z,4.35
2017-07-11T00:22:41.482Z,3.83
2017-07-11T00:25:10.513Z,4.50
2017-07-11T00:27:38.785Z,3.90
2017-07-11T00:30:07.093Z,4.07
2017-07-11T00:32:36.133Z,4.12
2017-07-11T00:35:04.401Z,3.87
2017-07-11T00:37:32.873Z,4.55
2017-07-11T00:40:01.158Z,4.15
2017-07-11T00:42:29.460Z,4.00
2017-07-11T00:44:57.765Z,4.00
2017-07-11T00:47:26.034Z,4.32
2017-07-11T00:49:55.073Z,4.70
2017-07-11T00:52:23.575Z,3.97
2017-07-11T00:54:52.616Z,4.65
2017-07-11T00:57:21.888Z,3.70
2017-07-11T00:59:50.193Z,3.40
2017-07-11T01:02:18.463Z,4.18
2017-07-11T01:04:46.725Z,4.05
2017-07-11T01:07:15.792Z,4.10
2017-07-11T01:09:44.061Z,4.68
2017-07-11T01:12:13.101Z,4.03
2017-07-11T01:14:41.417Z,4.18
2017-07-11T01:17:10.447Z,4.65
2017-07-11T01:19:38.713Z,4.70
2017-07-11T01:22:07.024Z,4.90
2017-07-11T01:24:36.071Z,3.70
2017-07-11T01:27:04.337Z,4.37
2017-07-11T01:29:32.813Z,4.30
2017-07-11T01:32:01.856Z,3.70
2017-07-11T01:37:04.865Z,4.18
2017-07-11T01:39:33.134Z,4.05
2017-07-11T01:42:02.164Z,3.87
2017-07-11T01:44:30.476Z,3.47
2017-07-11T01:46:59.525Z,3.47
2017-07-11T01:49:27.811Z,3.85
2017-07-11T01:51:57.489Z,4.18
2017-07-11T01:54:25.752Z,3.62
2017-07-11T01:56:54.021Z,4.00
2017-07-11T01:59:22.349Z,3.70
2017-07-11T02:01:50.620Z,2.65
2017-07-11T02:04:18.888Z,3.92
2017-07-11T02:06:47.197Z,3.30
2017-07-11T02:09:15.469Z,3.05
2017-07-11T02:11:43.740Z,3.65
2017-07-11T02:14:12.041Z,2.85
2017-07-11T02:16:40.305Z,3.53
2017-07-11T02:19:08.580Z,2.83
2017-07-11T02:21:37.656Z,3.62
2017-07-11T02:24:06.698Z,3.35
2017-07-11T02:26:34.960Z,3.03
2017-07-11T02:29:03.279Z,2.50
2017-07-11T02:31:31.550Z,2.87
2017-07-11T02:33:59.824Z,3.00
2017-07-11T02:36:28.159Z,3.05
2017-07-11T02:38:57.273Z,3.15
2017-07-11T02:41:27.205Z,2.67
2017-07-11T02:43:55.488Z,2.80
2017-07-11T02:46:24.524Z,3.33
2017-07-11T02:48:52.943Z,3.42
2017-07-11T02:51:21.976Z,3.25
2017-07-11T02:53:50.242Z,2.65
2017-07-11T02:56:18.545Z,2.62
2017-07-11T02:58:46.825Z,2.78
2017-07-11T03:01:15.095Z,2.65
2017-07-11T03:03:43.423Z,3.08
2017-07-11T03:06:12.448Z,2.45
2017-07-11T03:08:40.780Z,2.70
2017-07-11T03:11:09.100Z,2.50
2017-07-11T03:13:37.376Z,2.80
2017-07-11T03:16:07.677Z,2.90
2017-07-11T03:18:35.980Z,2.90
2017-07-11T03:21:04.245Z,2.78
2017-07-11T03:23:32.511Z,3.33
2017-07-11T03:26:02.164Z,2.60
2017-07-11T03:28:30.432Z,2.95
2017-07-11T03:30:59.465Z,3.25
2017-07-11T03:33:27.773Z,2.58
2017-07-11T03:35:56.806Z,2.90
2017-07-11T03:38:25.068Z,2.90
2017-07-11T03:40:53.381Z,2.87
2017-07-11T03:43:21.653Z,2.30
2017-07-11T03:45:49.921Z,2.53
2017-07-11T03:48:18.236Z,2.80
2017-07-11T03:50:46.509Z,2.72
2017-07-11T03:53:15.558Z,2.85
2017-07-11T03:55:43.860Z,2.92
2017-07-11T03:58:12.892Z,2.95
2017-07-11T04:00:41.160Z,2.75
2017-07-11T04:03:09.661Z,3.40
2017-07-11T04:05:38.700Z,2.47
2017-07-11T04:08:06.991Z,2.90
2017-07-11T04:10:35.293Z,2.37
2017-07-11T04:13:03.568Z,2.30
2017-07-11T04:15:31.837Z,2.55
2017-07-11T04:18:00.136Z,2.85
2017-07-11T04:20:28.408Z,2.72
2017-07-11T04:22:57.440Z,2.53
2017-07-11T04:25:25.770Z,2.80
2017-07-11T04:27:54.044Z,2.53
2017-07-11T04:30:22.309Z,2.80
2017-07-11T04:32:50.616Z,4.55
2017-07-11T04:35:18.888Z,2.87
2017-07-11T04:37:47.152Z,2.90
2017-07-11T04:40:16.227Z,2.72
2017-07-11T04:42:44.497Z,2.42
2017-07-11T04:45:13.529Z,3.70
2017-07-11T04:47:41.844Z,2.62
2017-07-11T04:50:10.876Z,2.83
2017-07-11T04:52:39.166Z,3.03
2017-07-11T04:55:07.476Z,2.50
2017-07-11T04:57:35.748Z,2.67
2017-07-11T05:00:04.012Z,2.55
2017-07-11T05:02:32.309Z,2.25
2017-07-11T05:05:00.572Z,2.60
2017-07-11T05:07:28.849Z,1.85
2017-07-11T05:09:58.025Z,2.05
2017-07-11T05:12:27.057Z,1.90
2017-07-11T05:14:55.320Z,1.90
2017-07-11T05:17:23.636Z,2.12
2017-07-11T05:19:52.668Z,2.20
2017-07-11T05:22:20.936Z,2.85
2017-07-11T05:24:49.432Z,3.22
2017-07-11T05:27:18.468Z,2.40
2017-07-11T05:29:46.728Z,2.15
2017-07-11T05:32:15.136Z,2.90
2017-07-11T05:34:43.411Z,2.47
2017-07-11T05:37:12.436Z,2.40
2017-07-11T05:39:40.746Z,2.10
2017-07-11T05:42:09.777Z,2.05
2017-07-11T05:44:38.048Z,2.50
2017-07-11T05:47:06.357Z,3.47
2017-07-11T05:49:35.397Z,2.42
2017-07-11T05:52:03.655Z,2.60
2017-07-11T05:54:32.865Z,2.20
2017-07-11T05:57:01.896Z,2.80
2017-07-11T05:59:30.165Z,2.78
2017-07-11T06:01:58.469Z,2.80
2017-07-11T06:04:27.501Z,2.45
2017-07-11T06:06:55.768Z,3.00
2017-07-11T06:09:24.081Z,3.17
2017-07-11T06:11:53.121Z,2.70
2017-07-11T06:14:21.371Z,2.65
2017-07-11T06:16:49.685Z,2.80
2017-07-11T06:19:18.712Z,2.25
2017-07-11T06:21:46.977Z,2.45
2017-07-11T06:24:15.293Z,2.40
2017-07-11T06:26:43.564Z,2.58
2017-07-11T06:29:11.828Z,1.80
2017-07-11T06:31:40.145Z,2.00
2017-07-11T06:34:08.407Z,2.55
2017-07-11T06:36:36.672Z,2.75
2017-07-11T06:39:05.156Z,2.20
2017-07-11T06:41:34.177Z,2.37
2017-07-11T06:44:02.446Z,2.03
2017-07-11T06:46:30.745Z,2.30
2017-07-11T06:48:59.806Z,2.25
2017-07-11T06:51:28.060Z,2.28
2017-07-11T06:53:56.364Z,2.62
2017-07-11T06:56:25.397Z,2.47
2017-07-11T06:58:53.660Z,2.83
2017-07-11T07:01:21.961Z,2.53
2017-07-11T07:03:50.994Z,2.30
2017-07-11T07:06:19.264Z,2.35
2017-07-11T07:08:47.765Z,2.00
2017-07-11T07:11:16.800Z,2.33
2017-07-11T07:13:45.060Z,2.60
2017-07-11T07:16:13.361Z,2.50
2017-07-11T07:18:42.400Z,1.85
2017-07-11T07:21:10.677Z,2.80
2017-07-11T07:23:38.984Z,2.12
2017-07-11T07:26:07.396Z,2.62
2017-07-11T07:28:35.661Z,2.60
2017-07-11T07:31:03.969Z,2.42
2017-07-11T07:33:32.248Z,2.80
2017-07-11T07:36:00.500Z,2.28
2017-07-11T07:38:28.804Z,2.22
2017-07-11T07:40:57.068Z,2.50
2017-07-11T07:43:25.345Z,2.08
2017-07-11T07:45:53.824Z,2.20
2017-07-11T07:48:22.088Z,1.98
2017-07-11T07:50:50.360Z,2.05
2017-07-11T07:53:18.669Z,2.10
2017-07-11T07:55:46.932Z,2.10
2017-07-11T07:58:15.196Z,1.98
2017-07-11T08:00:43.501Z,3.58
2017-07-11T08:03:11.776Z,1.92
2017-07-11T08:05:40.048Z,1.73
2017-07-11T08:08:08.477Z,1.77
2017-07-11T08:10:38.095Z,2.25
2017-07-11T08:13:06.374Z,1.90
2017-07-11T08:15:34.789Z,2.20
2017-07-11T08:18:03.821Z,1.90
2017-07-11T08:20:32.084Z,1.92
2017-07-11T08:23:00.397Z,1.90
2017-07-11T08:25:29.434Z,1.73
2017-07-11T08:27:57.705Z,1.70
2017-07-11T08:30:26.093Z,1.92
2017-07-11T08:32:54.356Z,2.50
2017-07-11T08:35:23.389Z,1.60
2017-07-11T08:37:51.690Z,1.83
2017-07-11T08:40:19.963Z,2.00
2017-07-11T08:42:48.993Z,2.05
2017-07-11T08:45:17.397Z,1.67
2017-07-11T08:47:45.666Z,1.95
2017-07-11T08:50:14.780Z,1.85
2017-07-11T08:52:43.097Z,2.37
2017-07-11T08:55:11.364Z,2.35
2017-07-11T08:57:40.398Z,2.60
2017-07-11T09:00:08.702Z,2.90
2017-07-11T09:02:37.752Z,2.72
2017-07-11T09:05:06.022Z,3.22
2017-07-11T09:07:34.320Z,4.20
2017-07-11T09:10:03.352Z,4.20
2017-07-11T09:12:31.623Z,3.30
2017-07-11T09:15:00.111Z,3.25
2017-07-11T09:17:28.377Z,3.10
2017-07-11T09:19:57.409Z,3.20
2017-07-11T09:22:25.711Z,3.53
2017-07-11T09:24:54.752Z,3.47
2017-07-11T09:27:23.016Z,3.10
2017-07-11T09:29:51.336Z,2.87
2017-07-11T09:32:20.357Z,3.70
2017-07-11T09:34:48.633Z,3.00
2017-07-11T09:37:16.930Z,2.37
2017-07-11T09:39:45.961Z,3.22
2017-07-11T09:42:14.228Z,2.40
2017-07-11T09:44:42.536Z,2.40
2017-07-11T09:47:10.812Z,2.00
2017-07-11T09:49:39.085Z,2.72
2017-07-11T09:52:07.394Z,2.25
2017-07-11T09:54:35.656Z,2.05
2017-07-11T09:57:03.933Z,2.30
2017-07-11T09:59:33.017Z,2.37
2017-07-11T10:02:02.093Z,2.03
2017-07-11T10:04:31.172Z,2.70
2017-07-11T10:07:00.408Z,2.12
2017-07-11T10:09:28.673Z,2.35
2017-07-11T10:11:56.944Z,2.60
2017-07-11T10:14:25.253Z,3.30
2017-07-11T10:16:53.516Z,2.50
2017-07-11T10:19:21.841Z,2.42
2017-07-11T10:21:50.320Z,2.12
2017-07-11T10:24:18.589Z,2.60
2017-07-11T10:26:47.629Z,2.50
2017-07-11T10:29:15.923Z,2.80
2017-07-11T10:31:44.965Z,2.70
2017-07-11T10:34:13.274Z,3.20
2017-07-11T10:36:42.342Z,2.72
2017-07-11T10:39:10.620Z,2.60
2017-07-11T10:41:39.687Z,2.30
2017-07-11T10:44:08.780Z,1.85
2017-07-11T10:46:37.808Z,2.42
2017-07-11T10:49:06.081Z,2.80
2017-07-11T10:51:34.400Z,2.30
2017-07-11T10:54:02.670Z,2.67
2017-07-11T10:56:30.937Z,2.65
2017-07-11T10:58:59.236Z,2.70
2017-07-11T11:01:27.513Z,2.28
2017-07-11T11:03:55.788Z,2.42
2017-07-11T11:06:24.858Z,2.75
2017-07-11T11:08:53.893Z,2.20
2017-07-11T11:11:22.173Z,2.25
2017-07-11T11:13:50.479Z,2.35
2017-07-11T11:16:18.913Z,2.30
2017-07-11T11:18:47.180Z,2.15
2017-07-11T11:21:15.485Z,1.90
2017-07-11T11:23:43.764Z,1.70
2017-07-11T11:26:12.038Z,2.25
2017-07-11T11:28:40.529Z,1.87
2017-07-11T11:31:09.578Z,1.98
2017-07-11T11:33:37.857Z,2.08
2017-07-11T11:36:06.154Z,2.00
2017-07-11T11:38:34.433Z,1.70
2017-07-11T11:41:02.698Z,2.37
2017-07-11T11:43:31.012Z,1.70
2017-07-11T11:45:59.281Z,2.08
2017-07-11T11:48:28.331Z,1.75
2017-07-11T11:50:56.729Z,2.30
2017-07-11T11:53:25.765Z,2.10
2017-07-11T11:55:54.039Z,1.90
2017-07-11T11:58:22.425Z,2.70
2017-07-11T12:00:51.464Z,2.20
2017-07-11T12:03:19.727Z,1.77
2017-07-11T12:05:48.040Z,2.30
2017-07-11T12:08:17.076Z,2.10
2017-07-11T12:10:45.353Z,1.90
2017-07-11T12:13:13.661Z,2.00
2017-07-11T12:15:41.937Z,2.00
2017-07-11T12:18:10.204Z,1.77
2017-07-11T12:20:38.506Z,2.37
2017-07-11T12:23:06.772Z,2.05
2017-07-11T12:25:35.808Z,1.83
2017-07-11T12:28:04.140Z,2.00
2017-07-11T12:30:32.408Z,2.08
2017-07-11T12:33:00.680Z,2.03
2017-07-11T12:35:28.986Z,1.83
2017-07-11T12:37:57.253Z,2.00
2017-07-11T12:40:25.525Z,1.90
2017-07-11T12:42:54.606Z,1.70
2017-07-11T12:45:23.640Z,2.17
2017-07-11T12:47:51.920Z,1.62
2017-07-11T12:50:20.225Z,1.70
2017-07-11T12:52:49.449Z,2.10
2017-07-11T12:55:17.720Z,2.33
2017-07-11T12:57:46.036Z,1.98
2017-07-11T13:00:14.309Z,2.20
2017-07-11T13:02:42.585Z,2.25
2017-07-11T13:05:10.916Z,1.90
2017-07-11T13:07:39.186Z,2.40
2017-07-11T13:10:07.457Z,1.85
2017-07-11T13:12:35.768Z,2.15
2017-07-11T13:15:04.044Z,2.10
2017-07-11T13:17:33.083Z,1.98
2017-07-11T13:20:01.397Z,2.22
2017-07-11T13:22:29.667Z,2.30
2017-07-11T13:24:57.945Z,1.83
2017-07-11T13:27:26.278Z,3.05
2017-07-11T13:29:55.309Z,2.03
2017-07-11T13:32:23.575Z,2.40
2017-07-11T13:34:51.885Z,7.07
2017-07-11T13:37:20.153Z,2.30
2017-07-11T13:39:48.420Z,2.50
2017-07-11T13:42:16.721Z,2.17
2017-07-11T13:44:44.991Z,2.80
2017-07-11T13:47:13.264Z,2.25
2017-07-11T13:49:41.589Z,2.45
2017-07-11T13:52:09.861Z,2.10
2017-07-11T13:54:38.132Z,2.83
2017-07-11T13:57:06.448Z,2.80
2017-07-11T13:59:35.561Z,2.50
2017-07-11T14:02:03.829Z,2.28
2017-07-11T14:04:32.156Z,2.35
2017-07-11T14:07:00.423Z,2.40
2017-07-11T14:09:28.696Z,2.37
2017-07-11T14:11:57.021Z,2.55
2017-07-11T14:14:26.060Z,2.37
2017-07-11T14:16:54.331Z,2.60
2017-07-11T14:19:22.649Z,2.55
2017-07-11T14:21:50.921Z,2.33
2017-07-11T14:24:19.197Z,2.67
2017-07-11T14:26:47.500Z,2.72
2017-07-11T14:29:16.548Z,2.80
2017-07-11T14:31:44.813Z,2.10
2017-07-11T14:34:13.134Z,2.55
2017-07-11T14:36:41.405Z,2.80
2017-07-11T14:39:09.692Z,2.28
2017-07-11T14:41:38.011Z,2.37
2017-07-11T14:44:06.295Z,3.00
2017-07-11T14:46:34.560Z,2.45
2017-07-11T14:49:02.869Z,2.87
2017-07-11T14:51:31.905Z,2.80
2017-07-11T14:54:00.180Z,2.70
2017-07-11T14:56:28.488Z,2.50
2017-07-11T14:58:56.788Z,2.72
2017-07-11T15:01:25.069Z,3.33
2017-07-11T15:03:53.383Z,2.83
2017-07-11T15:06:21.669Z,2.20
2017-07-11T15:08:49.940Z,2.30
2017-07-11T15:11:18.253Z,2.30
2017-07-11T15:13:46.520Z,2.47
2017-07-11T15:16:14.793Z,2.80
2017-07-11T15:18:43.247Z,2.70
2017-07-11T15:21:11.517Z,2.53
2017-07-11T15:23:39.792Z,2.30
2017-07-11T15:26:08.233Z,2.40
2017-07-11T15:28:36.543Z,2.62
2017-07-11T15:31:04.824Z,2.40
2017-07-11T15:33:33.136Z,2.80
2017-07-11T15:36:01.416Z,2.53
2017-07-11T15:38:29.923Z,2.85
2017-07-11T15:40:59.020Z,3.33
2017-07-11T15:43:27.314Z,2.40
2017-07-11T15:45:55.578Z,2.60
2017-07-11T15:48:23.897Z,2.60
2017-07-11T15:50:52.938Z,2.60
2017-07-11T15:53:21.205Z,2.80
2017-07-11T15:55:49.529Z,2.03
2017-07-11T15:58:17.805Z,2.17
2017-07-11T16:00:46.083Z,2.80
2017-07-11T16:03:14.392Z,2.55
2017-07-11T16:05:42.668Z,2.22
2017-07-11T16:08:10.948Z,2.17
2017-07-11T16:10:39.258Z,2.10
2017-07-11T16:13:07.532Z,2.67
2017-07-11T16:15:36.585Z,2.25
2017-07-11T16:18:05.648Z,2.30
2017-07-11T16:20:34.204Z,2.40
2017-07-11T16:23:02.468Z,2.45
2017-07-11T16:25:30.796Z,2.50
2017-07-11T16:27:59.065Z,2.10
2017-07-11T16:30:27.340Z,1.83
2017-07-11T16:32:55.644Z,2.58
2017-07-11T16:35:23.925Z,2.22
2017-07-11T16:37:52.964Z,1.95
2017-07-11T16:40:21.281Z,2.30
2017-07-11T16:42:49.549Z,2.00
2017-07-11T16:45:17.827Z,2.10
2017-07-11T16:47:46.146Z,2.00
2017-07-11T16:50:15.176Z,1.90
2017-07-11T16:52:43.445Z,2.30
2017-07-11T16:55:11.757Z,2.80
2017-07-11T16:57:40.047Z,2.60
2017-07-11T17:00:08.325Z,2.20
2017-07-11T17:02:36.674Z,2.20
2017-07-11T17:05:04.945Z,2.70
2017-07-11T17:07:33.220Z,2.70
2017-07-11T17:10:01.722Z,2.43
2017-07-11T17:12:30.780Z,2.53
2017-07-11T17:14:59.093Z,2.75
2017-07-11T17:17:27.417Z,2.05
2017-07-11T17:19:55.691Z,2.37
2017-07-11T17:22:24.716Z,1.80
2017-07-11T17:24:53.033Z,1.98
2017-07-11T17:27:22.136Z,1.80
2017-07-11T17:29:50.409Z,2.05
2017-07-11T17:32:18.717Z,2.37
2017-07-11T17:34:46.995Z,2.00
2017-07-11T17:37:16.065Z,2.70
2017-07-11T17:39:44.362Z,2.28
2017-07-11T17:42:12.633Z,2.50
2017-07-11T17:44:40.904Z,2.70
2017-07-11T17:47:09.222Z,2.05
2017-07-11T17:49:38.490Z,2.03
2017-07-11T17:52:06.777Z,2.20
2017-07-11T17:54:35.844Z,2.58
2017-07-11T17:57:04.883Z,2.05
2017-07-11T17:59:33.784Z,1.98
2017-07-11T18:02:02.905Z,2.67
2017-07-11T18:04:31.170Z,1.90
2017-07-11T18:06:59.448Z,2.17
2017-07-11T18:09:27.749Z,2.35
2017-07-11T18:11:56.021Z,2.47
2017-07-11T18:14:25.052Z,2.28
2017-07-11T18:16:53.466Z,2.05
2017-07-11T18:19:22.500Z,2.00
2017-07-11T18:21:50.796Z,2.20
2017-07-11T18:24:19.087Z,2.30
2017-07-11T18:26:47.358Z,2.53
2017-07-11T18:29:15.639Z,2.25
2017-07-11T18:31:44.049Z,2.25
2017-07-11T18:34:13.100Z,2.40
2017-07-11T18:36:41.371Z,2.87
2017-07-11T18:39:09.692Z,3.30
2017-07-11T18:41:38.044Z,2.17
2017-07-11T18:44:06.321Z,2.15
2017-07-11T18:46:34.745Z,2.58
2017-07-11T18:49:03.795Z,2.37
2017-07-11T18:51:32.061Z,2.30
2017-07-11T18:54:00.360Z,2.58
2017-07-11T18:56:29.400Z,2.40
2017-07-11T18:58:57.668Z,2.95
2017-07-11T19:01:25.973Z,3.20
2017-07-11T19:03:54.256Z,2.30
2017-07-11T19:06:22.527Z,3.00
2017-07-11T19:08:50.845Z,2.60
2017-07-11T19:11:19.873Z,2.50
2017-07-11T19:13:48.137Z,2.40
2017-07-11T19:16:16.460Z,2.80
2017-07-11T19:18:44.728Z,2.45
2017-07-11T19:21:13.009Z,2.35
2017-07-11T19:23:41.325Z,2.70
2017-07-11T19:26:10.364Z,2.70
2017-07-11T19:28:38.637Z,3.03
2017-07-11T19:31:07.153Z,3.20
2017-07-11T19:33:35.433Z,3.28
2017-07-11T19:36:03.708Z,2.95
2017-07-11T19:38:32.025Z,2.70
2017-07-11T19:41:00.325Z,2.87
2017-07-11T19:43:28.592Z,2.70
2017-07-11T19:45:56.974Z,2.80
2017-07-11T19:48:25.241Z,3.10
2017-07-11T19:50:53.504Z,2.87
2017-07-11T19:53:22.765Z,3.65
2017-07-11T19:55:51.084Z,3.25
2017-07-11T19:58:20.189Z,3.17
2017-07-11T20:00:48.664Z,2.85
2017-07-11T20:03:16.956Z,3.20
2017-07-11T20:05:45.221Z,2.70
2017-07-11T20:08:13.703Z,3.50
2017-07-11T20:10:42.992Z,3.08
2017-07-11T20:13:12.025Z,3.60
2017-07-11T20:15:40.333Z,3.47
2017-07-11T20:18:09.370Z,4.03
2017-07-11T20:20:37.664Z,3.95
2017-07-11T20:23:05.968Z,3.85
2017-07-11T20:25:34.241Z,4.15
2017-07-11T20:28:02.508Z,4.15
2017-07-11T20:30:30.831Z,4.10
2017-07-11T20:32:59.104Z,3.50
2017-07-11T20:35:27.377Z,4.65
2017-07-11T20:37:55.681Z,3.90
2017-07-11T20:40:23.956Z,3.35
2017-07-11T20:42:52.212Z,3.75
2017-07-11T20:45:20.532Z,3.50
2017-07-11T20:47:48.801Z,3.75
2017-07-11T20:50:17.069Z,4.00
2017-07-11T20:52:45.391Z,4.05
2017-07-11T20:55:13.649Z,3.28
2017-07-11T20:57:41.925Z,3.50
2017-07-11T21:00:10.236Z,4.65
2017-07-11T21:02:38.504Z,3.50
2017-07-11T21:05:06.772Z,4.20
2017-07-11T21:07:35.858Z,3.87
2017-07-11T21:10:04.134Z,3.97
2017-07-11T21:12:33.164Z,3.55
2017-07-11T21:15:01.472Z,3.60
2017-07-11T21:17:29.748Z,3.90
2017-07-11T21:19:58.024Z,3.35
2017-07-11T21:22:26.358Z,4.00
2017-07-11T21:24:54.624Z,4.65
2017-07-11T21:27:22.893Z,4.25
2017-07-11T21:29:51.234Z,4.05
2017-07-11T21:32:20.264Z,3.65
2017-07-11T21:34:48.545Z,3.35
2017-07-11T21:37:16.876Z,4.00
2017-07-11T21:39:45.208Z,3.55
2017-07-11T21:42:13.491Z,3.95
2017-07-11T21:44:41.814Z,4.00
2017-07-11T21:47:10.853Z,4.00
2017-07-11T21:49:39.117Z,4.60
2017-07-11T21:52:07.432Z,4.43
2017-07-11T21:54:36.471Z,3.90
2017-07-11T21:57:04.739Z,4.40
2017-07-11T21:59:33.045Z,4.55
2017-07-11T22:02:01.316Z,3.85
2017-07-11T22:04:29.598Z,4.00
2017-07-11T22:06:58.002Z,3.75
2017-07-11T22:09:27.097Z,4.60
2017-07-11T22:11:56.137Z,3.80
2017-07-11T22:14:24.449Z,4.25
2017-07-11T22:16:52.732Z,3.75
2017-07-11T22:19:21.036Z,3.83
2017-07-11T22:21:49.346Z,4.30
2017-07-11T22:24:17.621Z,4.10
2017-07-11T22:26:45.901Z,4.30
2017-07-11T22:29:14.213Z,4.43
2017-07-11T22:31:42.483Z,5.30
2017-07-11T22:34:10.748Z,4.50
2017-07-11T22:36:39.058Z,5.03
2017-07-11T22:39:07.325Z,3.97
2017-07-11T22:41:35.592Z,5.62
2017-07-11T22:44:03.955Z,4.37
2017-07-11T22:46:32.218Z,4.75
2017-07-11T22:49:00.486Z,4.22
2017-07-11T22:51:29.572Z,5.00
2017-07-11T22:53:57.857Z,4.50
2017-07-11T22:56:26.117Z,5.75
2017-07-11T22:58:54.437Z,4.32
2017-07-11T23:01:23.463Z,4.97
2017-07-11T23:03:51.737Z,5.05
2017-07-11T23:06:20.048Z,5.32
2017-07-11T23:08:48.309Z,4.60
2017-07-11T23:11:17.339Z,4.03
2017-07-11T23:13:45.681Z,4.00
2017-07-11T23:16:13.949Z,4.62
2017-07-11T23:18:42.217Z,4.55
2017-07-11T23:21:10.584Z,4.47
2017-07-11T23:23:38.864Z,4.85
2017-07-11T23:26:07.141Z,4.68
2017-07-11T23:28:35.444Z,5.12
2017-07-11T23:31:03.712Z,4.50
2017-07-11T23:33:31.997Z,4.32
2017-07-11T23:36:00.309Z,4.80
2017-07-11T23:38:29.340Z,5.35
2017-07-11T23:40:57.632Z,4.93
2017-07-11T23:43:25.941Z,5.15
2017-07-11T23:45:54.213Z,4.75
2017-07-11T23:48:22.486Z,5.22
2017-07-11T23:50:50.893Z,5.03
2017-07-11T23:53:19.925Z,4.25
2017-07-11T23:55:48.189Z,5.47
2017-07-11T23:58:16.488Z,4.50
